Aeroporto :
LOGIN :

Iscrizione | Disclaimer

   EN    FR    IT 

 










Sommario :    VFR   VFR Marginale   IFR   IFR Intensivo   IFR Molto Intensivo
Visibilità : 
Base nubi : 
>= 8 km
>= 3000ft
5 / 8 km
1000 / 3000 ft
1500m / 5 km
500 / 1000 ft
800 / 1500m
200 / 500 ft
< 800m
< 200 ft
Simboli :   Temporali  Nebbia  Neve Forte  Precipitazioni Forti  Vento > 20 kt
SIGMETs :   Varie  Temporali  Ghiacco  Turbolenza  Onda orograficha  Ceneri Vulcaniche







- Altitudine del aeroporto : 2265 ft
- Codice IATA : CZL


DABC - Mohamed Boudiaf Int. Constantine

ULTIMO METAR :
  • 232200Z VRB01KT 9999 FEW030 08/06 Q1024

METARs OBSOLETI :
  • 232130Z VRB01KT 9999 FEW030 07/07 Q1024
  • 232100Z 15003KT 9999 FEW030 08/06 Q1024
  • 232030Z 23003KT 8000 FEW026 08/07 Q1024
  • 232000Z 25003KT 9999 FEW030 09/07 Q1024
  • 231930Z 00000KT 9999 FEW030 09/07 Q1024

TAF TAF DABC
Valido dal 23 a 18 ore il 24 a 18 ore UTC


231700Z 2318/2418 05010KT 9999 SCT016 BKN030
PROB30
TEMPO 2318/2321 FEW020TCU
BECMG 2320/2322 VRB02KT
TEMPO 2322/2408 2000 BR BKN008
TEMPO 2400/2407 0100 FG BKN002
PROB30
TEMPO 2412/2418 FEW020TCU
Nessun NOTAM noto per questo aeroporto.



MetMap, La meteo Aeronautica in un colpo d'occhio ! - Copyright ORBIFLY Dicembre 2007 - Disclaimer

ORBIFLY MET'MAP TEAM :

Programmazione e sviluppo : Alexandra Zaïnal
Concezione e sviluppo : Baudouin d'Aumeries
Co-Programmazione e sviluppo : Marc-Olivier Méhu
Supporto tecnico e logistico : Manuel Goepfert
Aiuto per la traduzione : Arnaldo La Scala

Contatto : metmap@orbifly.com




FONTI E CREDITI :

   NOAA